Time;durP1;ratioP1;P1;durP2;ratioP2;P2;SDS_P1;SDS_P2;PMS_P1;PMS_P2;Temp;Humidity;BMP_temperature;BMP_pressure;BME280_temperature;BME280_humidity;BME280_pressure;Samples;Min_cycle;Max_cycle;Signal;HPM_P1;HPM_P2
2024/01/02 06:00:37;;;;;;;0.80;0.67;;;;;;;;;;1740994;28;20210;-74
2024/01/02 06:01:28;;;;;;;0.80;0.60;;;;;;;;;;1742115;28;20232;-74
2024/01/02 06:02:19;;;;;;;1.30;0.60;;;;;;;;;;1747856;28;20268;-74
2024/01/02 06:03:12;;;;;;;0.95;0.65;;;;;;;;;;1747882;28;20277;-74
2024/01/02 06:04:03;;;;;;;1.70;0.63;;;;;;;;;;1747798;28;20297;-74
2024/01/02 06:04:54;;;;;;;1.45;0.82;;;;;;;;;;1747782;28;20197;-74
2024/01/02 06:05:46;;;;;;;0.98;0.60;;;;;;;;;;1742658;28;20210;-74
2024/01/02 06:06:37;;;;;;;0.80;0.60;;;;;;;;;;1740941;28;20207;-74
2024/01/02 06:07:28;;;;;;;1.92;0.70;;;;;;;;;;1744561;28;20210;-74
2024/01/02 06:08:21;;;;;;;0.90;0.68;;;;;;;;;;1745262;28;20576;-74
2024/01/02 06:09:12;;;;;;;0.80;0.60;;;;;;;;;;1742773;28;20218;-75
2024/01/02 06:10:05;;;;;;;1.30;0.75;;;;;;;;;;1747901;28;20675;-74
2024/01/02 06:10:56;;;;;;;1.88;0.80;;;;;;;;;;1747752;28;20202;-75
2024/01/02 06:11:47;;;;;;;1.70;1.05;;;;;;;;;;1747753;28;20222;-74
2024/01/02 06:12:39;;;;;;;1.50;1.08;;;;;;;;;;1747754;28;20252;-74
2024/01/02 06:13:30;;;;;;;1.38;0.90;;;;;;;;;;1741544;28;20210;-74
2024/01/02 06:14:21;;;;;;;1.30;0.70;;;;;;;;;;1740940;28;20207;-74
2024/01/02 06:15:13;;;;;;;1.35;0.73;;;;;;;;;;1745334;28;20262;-75
2024/01/02 06:16:09;;;;;;;2.17;0.70;;;;;;;;;;1747827;28;20248;-74
2024/01/02 06:17:03;;;;;;;1.00;0.70;;;;;;;;;;1744045;28;20632;-74
2024/01/02 06:17:54;;;;;;;0.90;0.60;;;;;;;;;;1740939;28;20575;-74
2024/01/02 06:18:45;;;;;;;0.90;0.70;;;;;;;;;;1742836;28;20199;-74
2024/01/02 06:19:37;;;;;;;0.95;0.65;;;;;;;;;;1747839;28;20333;-74
2024/01/02 06:20:28;;;;;;;1.10;0.60;;;;;;;;;;1746924;28;20217;-75
2024/01/02 06:21:20;;;;;;;1.38;0.77;;;;;;;;;;1740921;28;20623;-74
2024/01/02 06:22:11;;;;;;;0.93;0.70;;;;;;;;;;1740885;28;20199;-74
2024/01/02 06:23:03;;;;;;;1.00;0.60;;;;;;;;;;1741063;28;20309;-74
2024/01/02 06:23:54;;;;;;;1.35;0.60;;;;;;;;;;1740897;28;20214;-74
2024/01/02 06:24:46;;;;;;;0.80;0.60;;;;;;;;;;1745682;28;20198;-75
2024/01/02 06:25:38;;;;;;;1.23;0.70;;;;;;;;;;1747711;28;20213;-74
2024/01/02 06:26:29;;;;;;;0.80;0.60;;;;;;;;;;1747749;28;20623;-74
2024/01/02 06:27:21;;;;;;;1.70;0.80;;;;;;;;;;1747812;28;20201;-74
2024/01/02 06:28:12;;;;;;;1.35;0.80;;;;;;;;;;1745995;28;20215;-74
2024/01/02 06:29:04;;;;;;;0.85;0.70;;;;;;;;;;1740868;28;20203;-74
2024/01/02 06:29:55;;;;;;;0.88;0.60;;;;;;;;;;1742316;28;20207;-74
2024/01/02 06:30:46;;;;;;;1.08;0.60;;;;;;;;;;1749098;28;20195;-74
2024/01/02 06:31:39;;;;;;;1.55;0.77;;;;;;;;;;1749023;28;20610;-74
2024/01/02 06:32:31;;;;;;;1.17;0.70;;;;;;;;;;1743152;28;20230;-74
2024/01/02 06:33:23;;;;;;;1.45;0.98;;;;;;;;;;1742247;28;20561;-74
2024/01/02 06:34:15;;;;;;;1.30;0.68;;;;;;;;;;1746422;28;20204;-74
2024/01/02 06:35:06;;;;;;;0.85;0.63;;;;;;;;;;1749049;28;20227;-74
2024/01/02 06:35:57;;;;;;;1.08;0.60;;;;;;;;;;1746184;28;20203;-74
2024/01/02 06:36:49;;;;;;;0.80;0.60;;;;;;;;;;1742165;28;20192;-75
2024/01/02 06:37:40;;;;;;;0.95;0.60;;;;;;;;;;1743473;28;20207;-74
2024/01/02 06:38:31;;;;;;;0.88;0.60;;;;;;;;;;1748691;28;20204;-74
2024/01/02 06:39:23;;;;;;;0.90;0.70;;;;;;;;;;1747343;28;20352;-74
2024/01/02 06:40:15;;;;;;;0.80;0.70;;;;;;;;;;1742044;28;20218;-75
2024/01/02 06:41:06;;;;;;;0.80;0.60;;;;;;;;;;1742097;28;20613;-74
2024/01/02 06:41:58;;;;;;;1.52;0.70;;;;;;;;;;1747262;28;20753;-74
2024/01/02 06:42:49;;;;;;;1.20;0.60;;;;;;;;;;1749002;28;20717;-74
2024/01/02 06:43:41;;;;;;;0.90;0.73;;;;;;;;;;1748944;28;20206;-74
2024/01/02 06:44:33;;;;;;;0.90;0.60;;;;;;;;;;1748993;28;20248;-74
2024/01/02 06:45:24;;;;;;;2.65;0.90;;;;;;;;;;1746791;28;20217;-74
2024/01/02 06:46:16;;;;;;;0.93;0.60;;;;;;;;;;1742104;28;20343;-74
2024/01/02 06:47:09;;;;;;;1.05;0.70;;;;;;;;;;1742732;28;20203;-74
2024/01/02 06:48:00;;;;;;;1.70;0.80;;;;;;;;;;1748640;28;20194;-74
2024/01/02 06:48:52;;;;;;;0.82;0.75;;;;;;;;;;1748600;28;20689;-74
2024/01/02 06:49:43;;;;;;;1.00;0.70;;;;;;;;;;1743007;28;20585;-78
2024/01/02 06:50:35;;;;;;;4.10;0.85;;;;;;;;;;1742826;28;20256;-77
2024/01/02 06:51:28;;;;;;;1.00;0.50;;;;;;;;;;1748022;28;20605;-77
2024/01/02 06:52:19;;;;;;;1.23;0.82;;;;;;;;;;1749247;28;20202;-75
2024/01/02 06:53:11;;;;;;;0.80;0.60;;;;;;;;;;1748949;28;20685;-76
2024/01/02 06:54:02;;;;;;;2.50;0.90;;;;;;;;;;1748912;28;20207;-75
2024/01/02 06:54:54;;;;;;;0.90;0.80;;;;;;;;;;1746902;28;20243;-75
2024/01/02 06:55:45;;;;;;;0.80;0.60;;;;;;;;;;1742047;28;20207;-75
2024/01/02 06:56:36;;;;;;;0.75;0.60;;;;;;;;;;1743247;28;20249;-75
2024/01/02 06:57:28;;;;;;;0.85;0.75;;;;;;;;;;1748922;28;20214;-75
2024/01/02 06:58:19;;;;;;;0.80;0.60;;;;;;;;;;1749046;28;20217;-76
2024/01/02 06:59:11;;;;;;;1.08;0.70;;;;;;;;;;1748515;28;20281;-75
2024/01/02 07:00:05;;;;;;;2.58;0.80;;;;;;;;;;1749001;28;20206;-75
2024/01/02 07:00:56;;;;;;;2.72;0.70;;;;;;;;;;1748660;28;20222;-76
2024/01/02 07:01:48;;;;;;;0.85;0.60;;;;;;;;;;1748885;28;20222;-76
2024/01/02 07:02:41;;;;;;;2.78;1.15;;;;;;;;;;1748896;28;20214;-76
2024/01/02 07:03:32;;;;;;;0.95;0.70;;;;;;;;;;1748828;28;20206;-75
2024/01/02 07:04:24;;;;;;;0.90;0.60;;;;;;;;;;1747249;28;20248;-75
2024/01/02 07:05:16;;;;;;;0.90;0.50;;;;;;;;;;1741915;28;20199;-76
2024/01/02 07:06:09;;;;;;;0.70;0.70;;;;;;;;;;1742201;28;20706;-76
2024/01/02 07:07:00;;;;;;;1.85;0.70;;;;;;;;;;1748897;28;20581;-76
2024/01/02 07:07:52;;;;;;;1.90;0.80;;;;;;;;;;1748904;28;20259;-76
2024/01/02 07:08:43;;;;;;;1.00;0.80;;;;;;;;;;1742539;28;20214;-76
2024/01/02 07:09:34;;;;;;;0.88;0.77;;;;;;;;;;1741941;28;20244;-76
2024/01/02 07:10:26;;;;;;;0.93;0.60;;;;;;;;;;1746137;28;20293;-76
2024/01/02 07:11:17;;;;;;;0.90;0.52;;;;;;;;;;1743387;28;20195;-76
2024/01/02 07:12:08;;;;;;;1.55;0.80;;;;;;;;;;1744689;28;20201;-76
2024/01/02 07:13:00;;;;;;;0.80;0.70;;;;;;;;;;1748866;28;20190;-76
2024/01/02 07:13:51;;;;;;;0.98;0.80;;;;;;;;;;1748832;28;20194;-76
2024/01/02 07:14:43;;;;;;;1.38;0.80;;;;;;;;;;1748618;28;20277;-75
2024/01/02 07:15:35;;;;;;;0.90;0.70;;;;;;;;;;1748721;28;20229;-76
2024/01/02 07:16:26;;;;;;;0.88;0.80;;;;;;;;;;1748857;28;20218;-76
2024/01/02 07:17:19;;;;;;;0.90;0.70;;;;;;;;;;1748740;28;20214;-76
2024/01/02 07:18:13;;;;;;;0.80;0.60;;;;;;;;;;1745478;28;20265;-75
2024/01/02 07:19:04;;;;;;;0.70;0.60;;;;;;;;;;1742574;28;20199;-75
2024/01/02 07:19:58;;;;;;;2.35;0.70;;;;;;;;;;1745755;28;20210;-75
2024/01/02 07:20:49;;;;;;;1.42;0.70;;;;;;;;;;1748695;28;20343;-75
2024/01/02 07:21:41;;;;;;;0.90;0.70;;;;;;;;;;1745831;28;20218;-75
2024/01/02 07:22:32;;;;;;;1.00;0.70;;;;;;;;;;1741824;28;20671;-76
2024/01/02 07:23:25;;;;;;;1.00;0.80;;;;;;;;;;1743116;28;20207;-76
2024/01/02 07:24:16;;;;;;;1.27;0.60;;;;;;;;;;1748610;28;20232;-76
2024/01/02 07:25:08;;;;;;;1.00;0.82;;;;;;;;;;1749125;28;20206;-76
2024/01/02 07:26:00;;;;;;;0.80;0.73;;;;;;;;;;1754418;28;20201;-76
2024/01/02 07:26:51;;;;;;;3.20;0.80;;;;;;;;;;1756540;28;20213;-77
2024/01/02 07:27:43;;;;;;;2.15;0.77;;;;;;;;;;1749839;28;20322;-77
2024/01/02 07:28:35;;;;;;;1.00;0.70;;;;;;;;;;1748459;28;20209;-76
2024/01/02 07:29:28;;;;;;;0.90;0.60;;;;;;;;;;1749260;28;20662;-76
2024/01/02 07:30:20;;;;;;;0.90;0.80;;;;;;;;;;1749204;28;20213;-76
2024/01/02 07:31:11;;;;;;;0.80;0.70;;;;;;;;;;1747035;28;20252;-75
2024/01/02 07:32:03;;;;;;;0.90;0.70;;;;;;;;;;1744895;28;20257;-75
2024/01/02 07:32:55;;;;;;;1.10;0.77;;;;;;;;;;1743168;28;20204;-76
2024/01/02 07:33:48;;;;;;;1.05;0.60;;;;;;;;;;1741840;28;20242;-76
2024/01/02 07:34:40;;;;;;;2.25;0.63;;;;;;;;;;1742016;28;20203;-76
2024/01/02 07:35:31;;;;;;;0.70;0.52;;;;;;;;;;1742016;28;20258;-76
2024/01/02 07:36:23;;;;;;;1.40;0.70;;;;;;;;;;1742139;28;20567;-76
2024/01/02 07:37:14;;;;;;;1.20;1.00;;;;;;;;;;1747482;28;20587;-76
2024/01/02 07:38:05;;;;;;;0.90;0.63;;;;;;;;;;1749201;28;20202;-76
2024/01/02 07:38:57;;;;;;;1.00;0.70;;;;;;;;;;1744134;28;20203;-76
2024/01/02 07:39:50;;;;;;;1.15;0.80;;;;;;;;;;1742099;28;20211;-76
2024/01/02 07:40:41;;;;;;;0.93;0.80;;;;;;;;;;1743931;28;20572;-76
2024/01/02 07:41:33;;;;;;;2.38;0.60;;;;;;;;;;1748713;28;20244;-76
2024/01/02 07:42:24;;;;;;;0.90;0.70;;;;;;;;;;1748226;28;20209;-76
2024/01/02 07:43:15;;;;;;;1.48;0.57;;;;;;;;;;1742601;28;20210;-77
2024/01/02 07:44:07;;;;;;;0.80;0.60;;;;;;;;;;1747563;28;20194;-76
2024/01/02 07:44:59;;;;;;;1.02;0.65;;;;;;;;;;1742629;28;20211;-76
2024/01/02 07:45:51;;;;;;;0.90;0.80;;;;;;;;;;1741867;28;20219;-75
2024/01/02 07:46:42;;;;;;;0.90;0.70;;;;;;;;;;1746628;28;20202;-74
2024/01/02 07:47:34;;;;;;;0.90;0.70;;;;;;;;;;1744719;28;20194;-75
2024/01/02 07:48:25;;;;;;;0.80;0.65;;;;;;;;;;1744636;28;20199;-74
2024/01/02 07:49:18;;;;;;;0.88;0.70;;;;;;;;;;1741453;28;20225;-75
2024/01/02 07:50:10;;;;;;;1.63;0.70;;;;;;;;;;1743883;28;20199;-74
2024/01/02 07:51:01;;;;;;;1.00;0.70;;;;;;;;;;1748689;28;20207;-76
2024/01/02 07:51:52;;;;;;;0.70;0.52;;;;;;;;;;1748448;28;20778;-75
2024/01/02 07:52:44;;;;;;;1.27;0.70;;;;;;;;;;1748651;28;20198;-77
2024/01/02 07:53:35;;;;;;;1.30;0.60;;;;;;;;;;1748868;28;20210;-78
2024/01/02 07:54:26;;;;;;;0.88;0.70;;;;;;;;;;1748043;28;20226;-75
2024/01/02 07:55:18;;;;;;;0.80;0.60;;;;;;;;;;1748427;28;20550;-75
2024/01/02 07:56:09;;;;;;;1.40;0.80;;;;;;;;;;1748536;28;20206;-75
2024/01/02 07:57:00;;;;;;;1.70;0.68;;;;;;;;;;1748571;28;20544;-75
2024/01/02 07:57:52;;;;;;;0.80;0.65;;;;;;;;;;1745856;28;20218;-75
2024/01/02 07:58:44;;;;;;;0.88;0.70;;;;;;;;;;1741232;28;20203;-75
2024/01/02 07:59:35;;;;;;;1.00;0.90;;;;;;;;;;1742931;28;20667;-77
2024/01/02 08:00:27;;;;;;;1.13;0.80;;;;;;;;;;1748846;28;20202;-75
2024/01/02 08:01:18;;;;;;;2.38;0.60;;;;;;;;;;1747307;28;20210;-75
2024/01/02 08:02:09;;;;;;;1.98;0.80;;;;;;;;;;1745154;28;20278;-76
2024/01/02 08:03:01;;;;;;;1.20;0.85;;;;;;;;;;1741619;28;20199;-75
2024/01/02 08:03:53;;;;;;;2.92;0.73;;;;;;;;;;1746666;28;20202;-76
2024/01/02 08:04:45;;;;;;;1.10;0.80;;;;;;;;;;1748551;28;20202;-75
2024/01/02 08:05:37;;;;;;;1.20;0.80;;;;;;;;;;1744700;28;20286;-75
2024/01/02 08:06:28;;;;;;;2.35;0.80;;;;;;;;;;1746329;28;20588;-76
2024/01/02 08:07:19;;;;;;;0.80;0.60;;;;;;;;;;1746148;28;20194;-78
2024/01/02 08:08:11;;;;;;;1.15;0.73;;;;;;;;;;1742935;28;20202;-78
2024/01/02 08:09:03;;;;;;;0.90;0.70;;;;;;;;;;1741543;28;20698;-75
2024/01/02 08:09:54;;;;;;;1.08;0.82;;;;;;;;;;1748465;28;20209;-76
2024/01/02 08:10:46;;;;;;;1.80;1.02;;;;;;;;;;1748413;28;20190;-76
2024/01/02 08:11:37;;;;;;;1.38;1.08;;;;;;;;;;1748282;28;20226;-75
2024/01/02 08:12:29;;;;;;;2.13;1.80;;;;;;;;;;1748510;28;20667;-75
2024/01/02 08:13:21;;;;;;;3.13;1.25;;;;;;;;;;1744944;28;20201;-76
2024/01/02 08:14:14;;;;;;;1.00;0.90;;;;;;;;;;1747345;28;20229;-75
2024/01/02 08:15:05;;;;;;;2.22;1.50;;;;;;;;;;1747109;28;20295;-75
2024/01/02 08:15:57;;;;;;;1.80;1.25;;;;;;;;;;1748314;28;20203;-76
2024/01/02 08:16:49;;;;;;;1.02;0.90;;;;;;;;;;1746604;28;20562;-76
2024/01/02 08:17:40;;;;;;;1.35;0.80;;;;;;;;;;1741693;28;20210;-76
2024/01/02 08:18:33;;;;;;;1.00;0.80;;;;;;;;;;1741522;28;20655;-76
2024/01/02 08:19:24;;;;;;;1.17;0.80;;;;;;;;;;1748413;28;20217;-76
2024/01/02 08:20:17;;;;;;;0.90;0.70;;;;;;;;;;1748012;28;20576;-77
2024/01/02 08:21:09;;;;;;;0.90;0.70;;;;;;;;;;1742253;28;20207;-76
2024/01/02 08:22:00;;;;;;;0.93;0.70;;;;;;;;;;1741585;28;20214;-76
2024/01/02 08:22:53;;;;;;;1.70;0.73;;;;;;;;;;1746525;28;20199;-76
2024/01/02 08:23:45;;;;;;;0.90;0.50;;;;;;;;;;1748642;28;20199;-76
2024/01/02 08:24:38;;;;;;;0.95;0.70;;;;;;;;;;1748656;28;20206;-76
2024/01/02 08:25:29;;;;;;;0.90;0.80;;;;;;;;;;1748404;28;20289;-76
2024/01/02 08:26:20;;;;;;;1.02;0.90;;;;;;;;;;1746592;28;20709;-76
2024/01/02 08:27:13;;;;;;;1.17;0.90;;;;;;;;;;1741898;28;20191;-76
2024/01/02 08:28:04;;;;;;;1.00;0.90;;;;;;;;;;1746144;28;20198;-76
2024/01/02 08:28:56;;;;;;;2.13;1.05;;;;;;;;;;1746209;28;20195;-75
2024/01/02 08:29:48;;;;;;;1.48;1.05;;;;;;;;;;1747928;28;20195;-75
2024/01/02 08:30:40;;;;;;;0.93;0.80;;;;;;;;;;1742146;28;20318;-75
2024/01/02 08:31:33;;;;;;;1.42;0.82;;;;;;;;;;1741588;28;20219;-75
2024/01/02 08:32:24;;;;;;;0.80;0.80;;;;;;;;;;1746142;28;20263;-75
2024/01/02 08:33:15;;;;;;;1.10;1.00;;;;;;;;;;1748343;28;20289;-75
2024/01/02 08:34:07;;;;;;;1.10;0.85;;;;;;;;;;1745249;28;20286;-75
2024/01/02 08:34:59;;;;;;;1.27;1.17;;;;;;;;;;1741084;28;20816;-75
2024/01/02 08:35:52;;;;;;;1.75;1.05;;;;;;;;;;1741049;28;20230;-76
2024/01/02 08:36:44;;;;;;;1.98;1.50;;;;;;;;;;1742666;28;20199;-76
2024/01/02 08:37:35;;;;;;;4.10;2.17;;;;;;;;;;1747547;28;20203;-76
2024/01/02 08:38:27;;;;;;;3.35;2.30;;;;;;;;;;1741150;28;20195;-76
2024/01/02 08:39:19;;;;;;;4.05;2.58;;;;;;;;;;1740579;28;20207;-76
2024/01/02 08:40:11;;;;;;;2.33;1.75;;;;;;;;;;1746906;28;20209;-76
2024/01/02 08:41:02;;;;;;;2.08;1.55;;;;;;;;;;1748284;28;20201;-76
2024/01/02 08:41:54;;;;;;;2.45;1.40;;;;;;;;;;1748110;28;20218;-76
2024/01/02 08:42:45;;;;;;;2.25;1.30;;;;;;;;;;1748177;28;20191;-75
2024/01/02 08:43:37;;;;;;;1.52;1.00;;;;;;;;;;1745542;28;20252;-75
2024/01/02 08:44:28;;;;;;;1.38;0.70;;;;;;;;;;1748027;28;20202;-76
2024/01/02 08:45:19;;;;;;;2.15;0.80;;;;;;;;;;1746845;28;20206;-76
2024/01/02 08:46:11;;;;;;;1.00;0.88;;;;;;;;;;1741358;28;20655;-76
2024/01/02 08:47:03;;;;;;;0.80;0.80;;;;;;;;;;1741340;28;20274;-75
2024/01/02 08:47:54;;;;;;;1.00;0.80;;;;;;;;;;1747908;28;20194;-76
2024/01/02 08:48:46;;;;;;;1.08;0.60;;;;;;;;;;1747836;28;20195;-75
2024/01/02 08:49:37;;;;;;;0.80;0.70;;;;;;;;;;1742757;28;20210;-76
2024/01/02 08:50:29;;;;;;;0.80;0.70;;;;;;;;;;1741350;28;20195;-76
2024/01/02 08:51:22;;;;;;;1.25;0.80;;;;;;;;;;1744942;28;20206;-76
2024/01/02 08:52:13;;;;;;;1.00;0.90;;;;;;;;;;1747990;28;20207;-76
2024/01/02 08:53:04;;;;;;;0.95;0.80;;;;;;;;;;1747584;28;20202;-75
2024/01/02 08:53:57;;;;;;;1.33;0.75;;;;;;;;;;1748503;28;20199;-76
2024/01/02 08:54:48;;;;;;;0.80;0.70;;;;;;;;;;1747169;28;20575;-75
2024/01/02 08:55:40;;;;;;;0.90;0.70;;;;;;;;;;1741165;28;20195;-74
2024/01/02 08:56:32;;;;;;;1.20;0.70;;;;;;;;;;1741243;28;20245;-76
2024/01/02 08:57:23;;;;;;;0.80;0.60;;;;;;;;;;1745893;28;20207;-75
2024/01/02 08:58:15;;;;;;;1.00;0.70;;;;;;;;;;1741117;28;20206;-76
2024/01/02 08:59:06;;;;;;;0.77;0.65;;;;;;;;;;1745896;28;20213;-76
2024/01/02 08:59:58;;;;;;;0.80;0.60;;;;;;;;;;1748073;28;20252;-76
2024/01/02 09:00:50;;;;;;;1.10;0.80;;;;;;;;;;1744690;28;20341;-76
2024/01/02 09:01:41;;;;;;;1.85;0.70;;;;;;;;;;1741147;28;20229;-76
2024/01/02 09:02:32;;;;;;;1.45;0.88;;;;;;;;;;1741895;28;20203;-76
2024/01/02 09:03:24;;;;;;;0.98;0.68;;;;;;;;;;1741206;28;20205;-75
2024/01/02 09:04:15;;;;;;;1.05;0.80;;;;;;;;;;1741570;28;20203;-75
2024/01/02 09:05:07;;;;;;;0.80;0.60;;;;;;;;;;1747779;28;20191;-76
2024/01/02 09:05:59;;;;;;;2.35;0.80;;;;;;;;;;1748085;28;20198;-75
2024/01/02 09:06:52;;;;;;;0.70;0.60;;;;;;;;;;1742108;28;20211;-76
2024/01/02 09:07:44;;;;;;;1.08;0.60;;;;;;;;;;1744978;28;20205;-75
2024/01/02 09:08:35;;;;;;;1.13;0.70;;;;;;;;;;1743028;28;20667;-76
2024/01/02 09:09:27;;;;;;;1.98;0.68;;;;;;;;;;1741014;28;20195;-75
2024/01/02 09:10:18;;;;;;;0.90;0.70;;;;;;;;;;1744583;28;20256;-75
2024/01/02 09:11:10;;;;;;;0.80;0.60;;;;;;;;;;1741140;28;20199;-76
2024/01/02 09:12:02;;;;;;;0.95;0.68;;;;;;;;;;1742714;28;20195;-76
2024/01/02 09:12:54;;;;;;;0.70;0.60;;;;;;;;;;1747892;28;20195;-75
2024/01/02 09:13:45;;;;;;;0.70;0.50;;;;;;;;;;1747953;28;20197;-76
2024/01/02 09:14:37;;;;;;;0.80;0.70;;;;;;;;;;1741233;28;20615;-76
2024/01/02 09:15:28;;;;;;;1.08;0.60;;;;;;;;;;1741122;28;20199;-76
2024/01/02 09:16:20;;;;;;;1.27;0.70;;;;;;;;;;1746731;28;20739;-76
2024/01/02 09:17:11;;;;;;;1.00;0.60;;;;;;;;;;1747987;28;20592;-76
2024/01/02 09:18:03;;;;;;;1.75;0.60;;;;;;;;;;1743887;28;20202;-76
2024/01/02 09:18:55;;;;;;;1.27;0.60;;;;;;;;;;1740801;28;20851;-76
2024/01/02 09:19:47;;;;;;;0.82;0.70;;;;;;;;;;1743710;28;20200;-76
2024/01/02 09:20:38;;;;;;;0.93;0.68;;;;;;;;;;1747975;28;20209;-76
2024/01/02 09:21:29;;;;;;;1.00;0.65;;;;;;;;;;1747423;28;20582;-76
2024/01/02 09:22:23;;;;;;;0.80;0.68;;;;;;;;;;1747439;28;20198;-75
2024/01/02 09:23:15;;;;;;;1.42;0.90;;;;;;;;;;1740912;28;20203;-76
2024/01/02 09:24:07;;;;;;;0.75;0.65;;;;;;;;;;1741099;28;20188;-76
2024/01/02 09:24:59;;;;;;;0.90;0.75;;;;;;;;;;1741870;28;20195;-75
2024/01/02 09:25:51;;;;;;;0.70;0.60;;;;;;;;;;1741877;28;20229;-75
2024/01/02 09:26:45;;;;;;;0.80;0.60;;;;;;;;;;1741892;28;20194;-76
2024/01/02 09:27:38;;;;;;;1.35;1.00;;;;;;;;;;1745324;28;20263;-76
2024/01/02 09:28:31;;;;;;;0.95;0.60;;;;;;;;;;1747679;28;20197;-76
2024/01/02 09:29:24;;;;;;;0.75;0.60;;;;;;;;;;1744676;28;20207;-76
2024/01/02 09:30:17;;;;;;;0.82;0.60;;;;;;;;;;1741060;28;20202;-76
2024/01/02 09:31:08;;;;;;;0.80;0.70;;;;;;;;;;1743079;28;20207;-76
2024/01/02 09:32:00;;;;;;;0.70;0.50;;;;;;;;;;1748123;28;20808;-76
2024/01/02 09:32:51;;;;;;;0.80;0.60;;;;;;;;;;1747351;28;20304;-75
2024/01/02 09:33:43;;;;;;;0.70;0.50;;;;;;;;;;1741122;28;20195;-76
2024/01/02 09:34:35;;;;;;;2.85;0.70;;;;;;;;;;1740945;28;20278;-76
2024/01/02 09:35:27;;;;;;;1.10;0.60;;;;;;;;;;1747467;28;20217;-76
2024/01/02 09:36:18;;;;;;;1.38;1.27;;;;;;;;;;1747824;28;20226;-76
2024/01/02 09:37:11;;;;;;;0.93;0.82;;;;;;;;;;1743294;28;20264;-76
2024/01/02 09:38:04;;;;;;;1.27;1.15;;;;;;;;;;1745845;28;20221;-75
2024/01/02 09:38:56;;;;;;;0.93;0.80;;;;;;;;;;1745761;28;20236;-75
2024/01/02 09:39:48;;;;;;;3.63;0.70;;;;;;;;;;1748035;28;20222;-76
2024/01/02 09:40:45;;;;;;;0.80;0.70;;;;;;;;;;1745874;28;20202;-76
2024/01/02 09:41:47;;;;;;;0.77;0.60;;;;;;;;;;1741097;28;20663;-76
2024/01/02 09:42:41;;;;;;;1.23;0.88;;;;;;;;;;1743467;28;20207;-76
2024/01/02 09:43:38;;;;;;;0.90;0.75;;;;;;;;;;1747058;28;20244;-76
2024/01/02 09:44:37;;;;;;;1.10;0.60;;;;;;;;;;1745880;28;20972;-76
2024/01/02 09:45:36;;;;;;;0.93;0.75;;;;;;;;;;1741146;28;20203;-76
2024/01/02 09:46:33;;;;;;;0.70;0.50;;;;;;;;;;1743906;28;20273;-76
2024/01/02 09:47:31;;;;;;;0.70;0.60;;;;;;;;;;1748147;28;20256;-76
2024/01/02 09:48:29;;;;;;;0.70;0.50;;;;;;;;;;1748120;28;20302;-75
2024/01/02 09:49:26;;;;;;;1.02;0.60;;;;;;;;;;1747982;28;20229;-75
2024/01/02 09:50:22;;;;;;;0.80;0.60;;;;;;;;;;1744997;28;20286;-75
2024/01/02 09:51:17;;;;;;;0.80;0.60;;;;;;;;;;1741053;28;20195;-75
2024/01/02 09:52:22;;;;;;;1.00;0.60;;;;;;;;;;1743519;28;20207;-75
2024/01/02 09:53:36;;;;;;;0.77;0.50;;;;;;;;;;1744175;28;20199;-75
2024/01/02 09:54:32;;;;;;;1.33;0.73;;;;;;;;;;1746777;28;20261;-74
2024/01/02 09:55:31;;;;;;;0.98;0.60;;;;;;;;;;1744839;28;20252;-76
2024/01/02 09:56:27;;;;;;;0.93;0.50;;;;;;;;;;1741935;28;20230;-75
2024/01/02 09:57:23;;;;;;;0.70;0.60;;;;;;;;;;1741065;28;20203;-75
2024/01/02 09:58:21;;;;;;;0.70;0.50;;;;;;;;;;1746575;28;20564;-75
2024/01/02 09:59:20;;;;;;;0.90;0.50;;;;;;;;;;1747539;28;20214;-76
2024/01/02 10:00:18;;;;;;;0.80;0.60;;;;;;;;;;1747130;28;20670;-75
2024/01/02 10:01:16;;;;;;;0.70;0.50;;;;;;;;;;1745120;28;20277;-76
2024/01/02 10:02:25;;;;;;;1.38;0.70;;;;;;;;;;1740845;28;20206;-75
2024/01/02 10:03:24;;;;;;;0.80;0.70;;;;;;;;;;1746560;28;20213;-76
2024/01/02 10:04:23;;;;;;;0.82;0.57;;;;;;;;;;1747840;28;20194;-76
2024/01/02 10:05:18;;;;;;;1.08;0.63;;;;;;;;;;1749130;28;20604;-76
2024/01/02 10:06:18;;;;;;;0.70;0.60;;;;;;;;;;1742350;28;20203;-76
2024/01/02 10:07:25;;;;;;;1.02;0.70;;;;;;;;;;1742962;28;20203;-75
2024/01/02 10:08:41;;;;;;;0.90;0.70;;;;;;;;;;1749126;28;20235;-76
2024/01/02 10:09:43;;;;;;;0.70;0.50;;;;;;;;;;1732082;28;20208;-75
2024/01/02 10:10:36;;;;;;;1.05;0.55;;;;;;;;;;1749232;28;20206;-76
2024/01/02 10:11:33;;;;;;;0.70;0.50;;;;;;;;;;1744440;28;20275;-75
2024/01/02 10:12:30;;;;;;;0.77;0.50;;;;;;;;;;1742489;28;20201;-76
2024/01/02 10:13:25;;;;;;;1.00;0.60;;;;;;;;;;1745253;28;20194;-76
2024/01/02 10:14:22;;;;;;;1.27;0.70;;;;;;;;;;1746225;28;20583;-76
2024/01/02 10:15:16;;;;;;;1.40;0.70;;;;;;;;;;1748632;28;20198;-76
2024/01/02 10:16:11;;;;;;;1.00;0.50;;;;;;;;;;1749194;28;20202;-75
2024/01/02 10:17:06;;;;;;;0.73;0.60;;;;;;;;;;1744270;28;20246;-75
2024/01/02 10:18:03;;;;;;;0.70;0.50;;;;;;;;;;1742323;28;20222;-76
2024/01/02 10:19:02;;;;;;;0.88;0.70;;;;;;;;;;1745193;28;20206;-75
2024/01/02 10:19:57;;;;;;;1.05;0.60;;;;;;;;;;1749099;28;20206;-76
2024/01/02 10:20:52;;;;;;;1.33;0.70;;;;;;;;;;1745927;28;20286;-76
2024/01/02 10:21:47;;;;;;;0.80;0.50;;;;;;;;;;1742251;28;20215;-76
2024/01/02 10:22:43;;;;;;;0.80;0.65;;;;;;;;;;1744919;28;20281;-76
2024/01/02 10:23:41;;;;;;;1.20;0.63;;;;;;;;;;1748597;28;20217;-75
2024/01/02 10:24:37;;;;;;;0.77;0.60;;;;;;;;;;1748110;28;20222;-74
2024/01/02 10:25:30;;;;;;;1.00;0.60;;;;;;;;;;1748305;28;20198;-75
2024/01/02 10:26:23;;;;;;;0.70;0.60;;;;;;;;;;1744154;28;20195;-75
2024/01/02 10:27:15;;;;;;;1.00;0.60;;;;;;;;;;1749096;28;20233;-75
2024/01/02 10:28:14;;;;;;;0.95;0.65;;;;;;;;;;1749070;28;20202;-76
2024/01/02 10:29:10;;;;;;;1.10;0.60;;;;;;;;;;1748794;28;20202;-75
2024/01/02 10:30:06;;;;;;;0.90;0.50;;;;;;;;;;1748311;28;20252;-76
2024/01/02 10:31:02;;;;;;;0.77;0.50;;;;;;;;;;1742236;28;20296;-76
2024/01/02 10:31:58;;;;;;;1.05;0.75;;;;;;;;;;1742379;28;20230;-76
2024/01/02 10:32:55;;;;;;;1.88;0.70;;;;;;;;;;1749185;28;20715;-76
2024/01/02 10:33:53;;;;;;;1.10;0.70;;;;;;;;;;1745493;28;20203;-76
2024/01/02 10:34:50;;;;;;;0.95;0.70;;;;;;;;;;1748962;28;20217;-75
2024/01/02 10:35:44;;;;;;;1.30;0.90;;;;;;;;;;1748722;28;20585;-75
2024/01/02 10:36:41;;;;;;;1.90;1.30;;;;;;;;;;1742105;28;20227;-76
2024/01/02 10:37:40;;;;;;;1.55;1.17;;;;;;;;;;1742148;28;20207;-76
2024/01/02 10:38:36;;;;;;;0.82;0.70;;;;;;;;;;1743925;28;20583;-75
2024/01/02 10:39:30;;;;;;;1.10;0.75;;;;;;;;;;1748855;28;20203;-76
2024/01/02 10:40:23;;;;;;;1.00;0.70;;;;;;;;;;1742240;28;20214;-76
2024/01/02 10:41:23;;;;;;;0.98;0.80;;;;;;;;;;1742043;28;20199;-76
2024/01/02 10:42:26;;;;;;;1.88;1.60;;;;;;;;;;1742272;28;20207;-76
2024/01/02 10:43:24;;;;;;;1.30;1.20;;;;;;;;;;1742217;28;20283;-76
2024/01/02 10:44:21;;;;;;;1.10;0.73;;;;;;;;;;1749005;28;20208;-76
2024/01/02 10:45:16;;;;;;;1.02;0.85;;;;;;;;;;1748616;28;20255;-76
2024/01/02 10:46:15;;;;;;;1.38;1.25;;;;;;;;;;1745450;28;20572;-76
2024/01/02 10:47:10;;;;;;;2.30;1.90;;;;;;;;;;1748929;28;20194;-76
2024/01/02 10:48:08;;;;;;;2.90;1.13;;;;;;;;;;1742204;28;20199;-76
2024/01/02 10:49:04;;;;;;;3.47;2.88;;;;;;;;;;1741763;28;20207;-76
2024/01/02 10:49:59;;;;;;;4.82;4.15;;;;;;;;;;1745453;28;20199;-76
2024/01/02 10:50:53;;;;;;;1.80;1.70;;;;;;;;;;1748981;28;20237;-76
2024/01/02 10:51:51;;;;;;;2.78;2.58;;;;;;;;;;1742122;28;20325;-76
2024/01/02 10:52:46;;;;;;;2.95;2.30;;;;;;;;;;1745866;28;20206;-75
2024/01/02 10:53:44;;;;;;;1.88;1.70;;;;;;;;;;1748568;28;20198;-75
2024/01/02 10:54:41;;;;;;;4.25;1.55;;;;;;;;;;1748839;28;20248;-76
2024/01/02 10:55:37;;;;;;;1.83;1.20;;;;;;;;;;1748990;28;20671;-76
2024/01/02 10:56:35;;;;;;;1.05;0.95;;;;;;;;;;1748896;28;20698;-76
2024/01/02 10:57:31;;;;;;;1.65;0.93;;;;;;;;;;1742148;28;20211;-76
2024/01/02 10:58:23;;;;;;;1.80;1.00;;;;;;;;;;1742135;28;20207;-76
2024/01/02 10:59:22;;;;;;;1.42;0.95;;;;;;;;;;1747697;28;20664;-76
2024/01/02 11:00:20;;;;;;;0.80;0.80;;;;;;;;;;1745767;28;20264;-76
2024/01/02 11:01:15;;;;;;;0.80;0.70;;;;;;;;;;1748390;28;20210;-76
2024/01/02 11:02:13;;;;;;;0.73;0.60;;;;;;;;;;1748957;28;20201;-76
2024/01/02 11:03:10;;;;;;;1.00;0.70;;;;;;;;;;1742746;28;20207;-76
2024/01/02 11:04:05;;;;;;;1.50;0.90;;;;;;;;;;1741939;28;20199;-75
2024/01/02 11:05:00;;;;;;;1.15;0.80;;;;;;;;;;1747686;28;20229;-76
2024/01/02 11:05:56;;;;;;;0.95;0.75;;;;;;;;;;1748967;28;20229;-75
2024/01/02 11:06:57;;;;;;;0.90;0.80;;;;;;;;;;1747132;28;20191;-75
2024/01/02 11:07:50;;;;;;;1.08;0.80;;;;;;;;;;1749008;28;20622;-76
2024/01/02 11:08:46;;;;;;;0.77;0.70;;;;;;;;;;1743174;28;20214;-76
2024/01/02 11:09:45;;;;;;;0.95;0.70;;;;;;;;;;1741985;28;20260;-75
2024/01/02 11:10:38;;;;;;;0.90;0.70;;;;;;;;;;1741921;28;20222;-76
2024/01/02 11:11:32;;;;;;;2.65;0.95;;;;;;;;;;1742003;28;20224;-76
2024/01/02 11:12:27;;;;;;;2.05;0.90;;;;;;;;;;1746333;28;20210;-76
2024/01/02 11:13:20;;;;;;;0.90;0.75;;;;;;;;;;1748730;28;20199;-76
2024/01/02 11:14:14;;;;;;;1.10;0.80;;;;;;;;;;1748809;28;20214;-76
2024/01/02 11:15:11;;;;;;;1.20;0.90;;;;;;;;;;1748613;28;20199;-76
2024/01/02 11:16:03;;;;;;;1.35;0.80;;;;;;;;;;1744854;28;20622;-75
2024/01/02 11:16:57;;;;;;;1.48;0.95;;;;;;;;;;1746175;28;20222;-76
2024/01/02 11:17:50;;;;;;;1.00;0.88;;;;;;;;;;1746876;28;20243;-75
2024/01/02 11:18:45;;;;;;;0.90;0.80;;;;;;;;;;1741648;28;20199;-75
2024/01/02 11:19:41;;;;;;;1.70;1.38;;;;;;;;;;1742906;28;20218;-76